createdAt,value
2018-01-30T00:00:05.131Z,5.40
2018-01-30T00:02:32.699Z,5.40
2018-01-30T00:05:00.229Z,5.40
2018-01-30T00:07:27.798Z,5.30
2018-01-30T00:09:56.890Z,5.30
2018-01-30T00:12:26.280Z,5.30
2018-01-30T00:14:55.571Z,5.30
2018-01-30T00:17:23.930Z,5.30
2018-01-30T00:19:51.463Z,5.30
2018-01-30T00:22:19.019Z,5.30
2018-01-30T00:24:46.591Z,5.30
2018-01-30T00:27:14.122Z,5.30
2018-01-30T00:29:42.547Z,5.30
2018-01-30T00:32:14.164Z,5.30
2018-01-30T00:34:41.700Z,5.30
2018-01-30T00:37:09.226Z,5.30
2018-01-30T00:39:37.575Z,5.40
2018-01-30T00:42:05.106Z,5.40
2018-01-30T00:44:32.694Z,5.40
2018-01-30T00:47:03.119Z,5.40
2018-01-30T00:49:30.690Z,5.40
2018-01-30T00:51:58.228Z,5.50
2018-01-30T00:54:26.573Z,5.50
2018-01-30T00:56:54.115Z,5.50
2018-01-30T00:59:26.801Z,5.50
2018-01-30T01:01:54.402Z,5.50
2018-01-30T01:04:21.944Z,5.40
2018-01-30T01:06:49.627Z,5.30
2018-01-30T01:09:21.409Z,5.30
2018-01-30T01:11:49.380Z,5.30
2018-01-30T01:14:16.952Z,5.30
2018-01-30T01:16:45.241Z,5.30
2018-01-30T01:19:12.942Z,5.30
2018-01-30T01:21:40.459Z,5.30
2018-01-30T01:24:10.489Z,5.30
2018-01-30T01:26:38.829Z,5.20
2018-01-30T01:29:06.373Z,5.20
2018-01-30T01:31:45.722Z,5.20
2018-01-30T01:34:13.249Z,5.20
2018-01-30T01:36:41.554Z,5.30
2018-01-30T01:39:09.897Z,5.30
2018-01-30T01:41:37.426Z,5.30
2018-01-30T01:44:04.946Z,5.30
2018-01-30T01:46:32.582Z,5.30
2018-01-30T01:49:00.118Z,5.30
2018-01-30T01:51:27.663Z,5.40
2018-01-30T01:53:55.329Z,5.40
2018-01-30T01:56:22.854Z,5.40
2018-01-30T01:58:50.450Z,5.40
2018-01-30T02:01:18.643Z,5.40
2018-01-30T02:03:46.937Z,5.40
2018-01-30T02:06:14.854Z,5.30
2018-01-30T02:08:42.432Z,5.30
2018-01-30T02:11:10.743Z,5.30
2018-01-30T02:13:38.429Z,5.20
2018-01-30T02:16:06.111Z,5.10
2018-01-30T02:18:33.642Z,5.10
2018-01-30T02:21:01.936Z,5.10
2018-01-30T02:23:30.280Z,5.00
2018-01-30T02:25:57.804Z,5.00
2018-01-30T02:28:26.097Z,5.00
2018-01-30T02:30:53.698Z,5.00
2018-01-30T02:33:21.226Z,5.00
2018-01-30T02:35:49.558Z,4.90
2018-01-30T02:38:17.233Z,4.90
2018-01-30T02:40:45.558Z,4.90
2018-01-30T02:43:13.199Z,4.90
2018-01-30T02:45:40.767Z,4.90
2018-01-30T02:48:08.291Z,4.90
2018-01-30T02:50:36.599Z,4.90
2018-01-30T02:53:04.202Z,4.80
2018-01-30T02:55:31.725Z,4.90
2018-01-30T02:58:00.011Z,5.00
2018-01-30T03:00:28.358Z,5.00
2018-01-30T03:02:55.911Z,5.00
2018-01-30T03:05:23.426Z,5.00
2018-01-30T03:10:34.355Z,4.90
2018-01-30T03:13:02.702Z,4.80
2018-01-30T03:15:30.242Z,4.80
2018-01-30T03:17:57.787Z,4.80
2018-01-30T03:20:26.123Z,4.70
2018-01-30T03:22:53.659Z,4.70
2018-01-30T03:25:21.199Z,4.70
2018-01-30T03:27:48.758Z,4.70
2018-01-30T03:30:16.416Z,4.70
2018-01-30T03:32:43.946Z,4.70
2018-01-30T03:35:11.635Z,4.60
2018-01-30T03:37:39.240Z,4.60
2018-01-30T03:40:06.778Z,4.50
2018-01-30T03:42:34.346Z,4.50
2018-01-30T03:45:01.914Z,4.50
2018-01-30T03:47:29.619Z,4.50
2018-01-30T03:49:57.263Z,4.50
2018-01-30T03:52:24.806Z,4.50
2018-01-30T03:54:53.099Z,4.50
2018-01-30T03:57:21.434Z,4.60
2018-01-30T03:59:48.966Z,4.60
2018-01-30T04:02:16.499Z,4.60
2018-01-30T04:04:44.078Z,4.60
2018-01-30T04:07:12.435Z,4.60
2018-01-30T04:09:39.975Z,4.60
2018-01-30T04:12:07.558Z,4.60
2018-01-30T04:14:35.163Z,4.60
2018-01-30T04:17:02.721Z,4.70
2018-01-30T04:19:30.376Z,4.70
2018-01-30T04:21:57.926Z,4.80
2018-01-30T04:24:25.463Z,4.80
2018-01-30T04:26:53.210Z,4.90
2018-01-30T04:29:21.013Z,5.00
2018-01-30T04:31:48.597Z,5.00
2018-01-30T04:34:16.162Z,4.90
2018-01-30T04:36:43.792Z,4.90
2018-01-30T04:39:11.310Z,4.90
2018-01-30T04:41:38.879Z,4.90
2018-01-30T04:44:06.415Z,4.80
2018-01-30T04:46:33.976Z,4.80
2018-01-30T04:49:01.550Z,4.70
2018-01-30T04:51:29.104Z,4.70
2018-01-30T04:53:56.636Z,4.70
2018-01-30T04:56:24.211Z,4.60
2018-01-30T04:58:51.754Z,4.50
2018-01-30T05:01:19.406Z,4.50
2018-01-30T05:03:47.078Z,4.50
2018-01-30T05:06:14.739Z,4.50
2018-01-30T05:08:43.266Z,4.40
2018-01-30T05:11:10.858Z,4.40
2018-01-30T05:13:39.166Z,4.40
2018-01-30T05:16:07.546Z,4.40
2018-01-30T05:18:35.113Z,4.30
2018-01-30T05:21:02.654Z,4.40
2018-01-30T05:23:30.195Z,4.40
2018-01-30T05:25:57.899Z,4.40
2018-01-30T05:28:25.428Z,4.30
2018-01-30T05:30:52.963Z,4.30
2018-01-30T05:33:20.547Z,4.30
2018-01-30T05:35:48.074Z,4.30
2018-01-30T05:38:15.612Z,4.20
2018-01-30T05:40:43.959Z,4.20
2018-01-30T05:43:11.501Z,4.20
2018-01-30T05:45:39.077Z,4.20
2018-01-30T05:48:06.664Z,4.20
2018-01-30T05:50:34.215Z,4.20
2018-01-30T05:53:01.771Z,4.20
2018-01-30T05:55:29.334Z,4.10
2018-01-30T05:57:56.875Z,4.10
2018-01-30T06:00:24.413Z,4.10
2018-01-30T06:02:52.007Z,4.10
2018-01-30T06:05:19.539Z,4.10
2018-01-30T06:07:47.118Z,4.10
2018-01-30T06:10:14.899Z,4.10
2018-01-30T06:12:42.438Z,4.10
2018-01-30T06:15:09.997Z,4.10
2018-01-30T06:17:38.330Z,4.30
2018-01-30T06:20:05.864Z,4.30
2018-01-30T06:22:44.367Z,4.60
2018-01-30T06:25:11.895Z,4.70
2018-01-30T06:27:39.419Z,4.80
2018-01-30T06:30:07.766Z,5.00
2018-01-30T06:32:39.722Z,5.00
2018-01-30T06:35:07.382Z,5.10
2018-01-30T06:37:35.038Z,5.00
2018-01-30T06:40:03.348Z,4.70
2018-01-30T06:42:30.949Z,4.70
2018-01-30T06:44:58.499Z,4.60
2018-01-30T06:47:26.071Z,4.50
2018-01-30T06:49:53.640Z,4.40
2018-01-30T06:52:21.698Z,4.30
2018-01-30T06:54:49.383Z,4.30
2018-01-30T06:57:16.951Z,4.30
2018-01-30T06:59:45.976Z,4.30
2018-01-30T07:02:16.767Z,4.30
2018-01-30T07:04:44.294Z,4.20
2018-01-30T07:07:11.831Z,4.20
2018-01-30T07:09:40.259Z,4.20
2018-01-30T07:12:07.831Z,4.20
2018-01-30T07:14:35.375Z,4.10
2018-01-30T07:17:02.971Z,4.10
2018-01-30T07:19:30.494Z,4.10
2018-01-30T07:21:58.019Z,4.10
2018-01-30T07:24:25.578Z,4.10
2018-01-30T07:26:53.109Z,4.10
2018-01-30T07:29:21.451Z,4.10
2018-01-30T07:31:49.015Z,4.10
2018-01-30T07:34:34.354Z,4.10
2018-01-30T07:37:02.703Z,4.30
2018-01-30T07:39:30.236Z,4.20
2018-01-30T07:41:57.847Z,4.40
2018-01-30T07:44:25.416Z,4.50
2018-01-30T07:46:53.855Z,4.50
2018-01-30T07:49:22.159Z,4.60
2018-01-30T07:51:49.899Z,4.60
2018-01-30T07:54:17.516Z,4.60
2018-01-30T07:56:45.102Z,4.60
2018-01-30T07:59:12.689Z,4.60
2018-01-30T08:01:42.447Z,4.60
2018-01-30T08:04:10.791Z,4.60
2018-01-30T08:06:38.458Z,4.60
2018-01-30T08:09:06.012Z,4.60
2018-01-30T08:11:33.537Z,4.60
2018-01-30T08:14:01.123Z,4.70
2018-01-30T08:16:29.488Z,4.80
2018-01-30T08:18:57.040Z,4.80
2018-01-30T08:21:24.614Z,4.80
2018-01-30T08:23:52.176Z,4.90
2018-01-30T08:26:19.754Z,4.90
2018-01-30T08:28:47.434Z,4.90
2018-01-30T08:31:14.975Z,5.00
2018-01-30T08:33:42.554Z,5.00
2018-01-30T08:36:10.175Z,5.10
2018-01-30T08:38:39.254Z,5.10
2018-01-30T08:41:06.837Z,5.10
2018-01-30T08:43:34.569Z,5.20
2018-01-30T08:46:02.158Z,5.20
2018-01-30T08:48:29.714Z,5.40
2018-01-30T08:50:57.302Z,5.50
2018-01-30T08:53:25.252Z,5.50
2018-01-30T08:55:52.803Z,5.60
2018-01-30T08:58:21.283Z,5.80
2018-01-30T09:00:48.881Z,5.80
2018-01-30T09:03:17.227Z,5.70
2018-01-30T09:05:44.821Z,5.70
2018-01-30T09:08:13.157Z,5.70
2018-01-30T09:10:40.983Z,5.70
2018-01-30T09:13:08.895Z,5.70
2018-01-30T09:15:40.291Z,5.70
2018-01-30T09:18:08.119Z,5.80
2018-01-30T09:20:35.767Z,5.90
2018-01-30T09:23:03.316Z,5.90
2018-01-30T09:25:30.974Z,6.00
2018-01-30T09:27:58.648Z,6.00
2018-01-30T09:30:26.223Z,6.10
2018-01-30T09:32:53.941Z,6.10
2018-01-30T09:35:21.601Z,6.10
2018-01-30T09:37:49.165Z,6.10
2018-01-30T09:40:17.055Z,6.10
2018-01-30T09:42:44.824Z,6.20
2018-01-30T09:45:12.403Z,6.30
2018-01-30T09:47:40.874Z,6.30
2018-01-30T09:50:08.424Z,6.30
2018-01-30T09:52:36.027Z,6.40
2018-01-30T09:55:03.639Z,6.40
2018-01-30T09:57:31.966Z,6.60
2018-01-30T09:59:59.521Z,6.50
2018-01-30T10:02:27.204Z,6.60
2018-01-30T10:04:54.790Z,6.70
2018-01-30T10:07:22.385Z,6.80
2018-01-30T10:09:58.588Z,7.00
2018-01-30T10:12:29.497Z,7.10
2018-01-30T10:14:57.037Z,7.10
2018-01-30T10:17:24.648Z,7.20
2018-01-30T10:19:52.211Z,7.30
2018-01-30T10:22:19.813Z,7.30
2018-01-30T10:24:47.436Z,7.30
2018-01-30T10:27:15.039Z,7.40
2018-01-30T10:29:42.594Z,7.30
2018-01-30T10:32:10.176Z,7.30
2018-01-30T10:34:37.740Z,7.20
2018-01-30T10:37:05.316Z,7.20
2018-01-30T10:39:32.944Z,7.20
2018-01-30T10:42:00.506Z,7.20
2018-01-30T10:44:28.127Z,7.20
2018-01-30T10:46:55.722Z,7.20
2018-01-30T10:49:23.347Z,7.20
2018-01-30T10:51:50.942Z,7.30
2018-01-30T10:54:18.723Z,7.30
2018-01-30T10:56:46.298Z,7.30
2018-01-30T10:59:13.863Z,7.30
2018-01-30T11:01:41.484Z,7.30
2018-01-30T11:04:09.032Z,7.50
2018-01-30T11:06:36.588Z,7.50
2018-01-30T11:09:04.188Z,7.60
2018-01-30T11:11:31.753Z,7.70
2018-01-30T11:14:00.064Z,7.70
2018-01-30T11:16:28.511Z,7.70
2018-01-30T11:18:56.047Z,7.70
2018-01-30T11:21:23.601Z,7.80
2018-01-30T11:23:51.202Z,7.80
2018-01-30T11:26:18.741Z,7.90
2018-01-30T11:28:47.040Z,8.10
2018-01-30T11:31:14.638Z,8.10
2018-01-30T11:33:42.199Z,8.20
2018-01-30T11:36:09.750Z,8.20
2018-01-30T11:38:38.111Z,8.00
2018-01-30T11:41:05.673Z,8.00
2018-01-30T11:43:33.212Z,8.00
2018-01-30T11:46:00.813Z,7.80
2018-01-30T11:48:28.363Z,7.70
2018-01-30T11:50:55.909Z,7.60
2018-01-30T11:53:23.486Z,7.60
2018-01-30T11:55:51.027Z,7.50
2018-01-30T11:58:19.322Z,7.50
2018-01-30T12:00:46.916Z,7.50
2018-01-30T12:03:14.495Z,7.40
2018-01-30T12:05:42.042Z,7.30
2018-01-30T12:08:09.743Z,7.30
2018-01-30T12:10:37.299Z,7.20
2018-01-30T12:13:04.891Z,7.10
2018-01-30T12:15:32.463Z,7.00
2018-01-30T12:18:00.005Z,7.00
2018-01-30T12:20:27.548Z,7.10
2018-01-30T12:22:55.123Z,7.30
2018-01-30T12:25:23.430Z,7.70
2018-01-30T12:27:50.970Z,7.60
2018-01-30T12:30:18.559Z,7.80
2018-01-30T12:32:46.859Z,7.70
2018-01-30T12:35:15.186Z,7.70
2018-01-30T12:37:42.959Z,7.70
2018-01-30T12:40:10.487Z,7.80
2018-01-30T12:42:38.827Z,8.10
2018-01-30T12:45:06.498Z,8.00
2018-01-30T12:47:34.051Z,8.20
2018-01-30T12:50:01.591Z,8.50
2018-01-30T12:52:30.034Z,8.70
2018-01-30T12:54:57.562Z,8.70
2018-01-30T12:57:25.871Z,8.70
2018-01-30T12:59:53.459Z,8.70
2018-01-30T13:02:21.029Z,8.60
2018-01-30T13:04:48.569Z,8.40
2018-01-30T13:07:16.152Z,8.30
2018-01-30T13:09:43.735Z,8.30
2018-01-30T13:12:11.270Z,8.30
2018-01-30T13:14:39.611Z,8.10
2018-01-30T13:17:07.182Z,8.10
2018-01-30T13:19:34.715Z,8.00
2018-01-30T13:22:02.433Z,7.90
2018-01-30T13:24:30.079Z,7.90
2018-01-30T13:26:57.902Z,7.80
2018-01-30T13:29:25.575Z,7.60
2018-01-30T13:31:53.902Z,7.60
2018-01-30T13:34:21.514Z,7.60
2018-01-30T13:36:49.082Z,7.60
2018-01-30T13:39:16.618Z,7.60
2018-01-30T13:41:44.178Z,7.60
2018-01-30T13:44:12.590Z,7.50
2018-01-30T13:46:40.122Z,7.50
2018-01-30T13:49:07.660Z,7.40
2018-01-30T13:51:35.323Z,7.40
2018-01-30T13:54:02.855Z,7.40
2018-01-30T13:56:31.183Z,7.50
2018-01-30T13:58:58.859Z,7.40
2018-01-30T14:01:26.435Z,7.50
2018-01-30T14:03:53.967Z,7.60
2018-01-30T14:06:21.641Z,7.70
2018-01-30T14:08:49.177Z,7.80
2018-01-30T14:11:16.746Z,7.70
2018-01-30T14:13:44.387Z,7.70
2018-01-30T14:16:11.951Z,7.70
2018-01-30T14:18:39.510Z,7.70
2018-01-30T14:21:07.095Z,7.70
2018-01-30T14:23:34.670Z,7.70
2018-01-30T14:26:02.240Z,7.70
2018-01-30T14:28:29.817Z,7.60
2018-01-30T14:30:57.347Z,7.60
2018-01-30T14:33:25.654Z,7.50
2018-01-30T14:35:53.229Z,7.50
2018-01-30T14:38:20.754Z,7.50
2018-01-30T14:40:48.470Z,7.50
2018-01-30T14:43:16.035Z,7.50
2018-01-30T14:45:43.578Z,7.40
2018-01-30T14:48:11.530Z,7.30
2018-01-30T14:50:39.300Z,7.30
2018-01-30T14:53:06.857Z,7.50
2018-01-30T14:55:34.392Z,7.60
2018-01-30T14:58:02.742Z,7.60
2018-01-30T15:00:30.378Z,7.60
2018-01-30T15:02:57.915Z,7.50
2018-01-30T15:05:26.355Z,7.30
2018-01-30T15:07:53.887Z,7.30
2018-01-30T15:10:22.179Z,7.10
2018-01-30T15:12:49.764Z,7.10
2018-01-30T15:15:17.359Z,7.00
2018-01-30T15:17:44.893Z,7.00
2018-01-30T15:20:13.230Z,6.90
2018-01-30T15:22:40.760Z,6.90
2018-01-30T15:25:08.309Z,6.90
2018-01-30T15:27:36.749Z,6.80
2018-01-30T15:30:04.291Z,6.70
2018-01-30T15:32:31.828Z,6.80
2018-01-30T15:34:59.514Z,6.70
2018-01-30T15:37:27.828Z,6.70
2018-01-30T15:39:55.355Z,6.70
2018-01-30T15:42:22.947Z,6.70
2018-01-30T15:44:51.332Z,6.60
2018-01-30T15:47:18.860Z,6.60
2018-01-30T15:49:46.430Z,6.60
2018-01-30T15:52:13.962Z,6.60
2018-01-30T15:54:42.294Z,6.60
2018-01-30T15:57:09.902Z,6.60
2018-01-30T15:59:37.670Z,6.60
2018-01-30T16:02:05.175Z,6.60
2018-01-30T16:04:33.506Z,6.60
2018-01-30T16:07:01.058Z,6.60
2018-01-30T16:09:28.593Z,6.70
2018-01-30T16:11:56.951Z,7.00
2018-01-30T16:14:24.495Z,7.00
2018-01-30T16:16:52.019Z,7.00
2018-01-30T16:19:20.368Z,7.00
2018-01-30T16:21:47.904Z,6.90
2018-01-30T16:24:15.515Z,6.90
2018-01-30T16:26:43.177Z,6.80
2018-01-30T16:29:10.715Z,6.70
2018-01-30T16:31:38.323Z,6.70
2018-01-30T16:34:06.003Z,6.60
2018-01-30T16:36:33.647Z,6.60
2018-01-30T16:39:01.194Z,6.60
2018-01-30T16:41:28.899Z,6.50
2018-01-30T16:43:56.427Z,6.50
2018-01-30T16:46:25.746Z,6.50
2018-01-30T16:48:54.102Z,6.40
2018-01-30T16:51:21.642Z,6.40
2018-01-30T16:53:49.218Z,6.40
2018-01-30T16:56:16.804Z,6.30
2018-01-30T16:58:44.339Z,6.30
2018-01-30T17:01:11.875Z,6.30
2018-01-30T17:03:39.546Z,6.30
2018-01-30T17:06:07.083Z,6.20
2018-01-30T17:08:34.639Z,6.30
2018-01-30T17:11:02.219Z,6.40
2018-01-30T17:13:29.756Z,6.50
2018-01-30T17:15:58.167Z,6.60
2018-01-30T17:18:25.753Z,6.60
2018-01-30T17:20:53.279Z,6.50
2018-01-30T17:23:21.579Z,6.40
2018-01-30T17:25:50.017Z,6.40
2018-01-30T17:28:17.543Z,6.30
2018-01-30T17:30:45.118Z,6.30
2018-01-30T17:33:12.732Z,6.30
2018-01-30T17:35:40.281Z,6.20
2018-01-30T17:38:07.823Z,6.20
2018-01-30T17:40:36.776Z,6.10
2018-01-30T17:43:04.332Z,6.10
2018-01-30T17:45:31.868Z,6.10
2018-01-30T17:48:00.478Z,6.10
2018-01-30T17:50:28.011Z,6.10
2018-01-30T17:52:56.309Z,6.00
2018-01-30T17:55:24.691Z,6.00
2018-01-30T17:57:52.218Z,6.00
2018-01-30T18:00:19.773Z,6.00
2018-01-30T18:02:47.348Z,6.00
2018-01-30T18:05:14.938Z,6.00
2018-01-30T18:07:42.485Z,6.00
2018-01-30T18:10:10.161Z,6.00
2018-01-30T18:12:37.719Z,6.00
2018-01-30T18:15:06.023Z,5.90
2018-01-30T18:17:33.618Z,5.90
2018-01-30T18:20:01.161Z,5.80
2018-01-30T18:22:28.703Z,5.70
2018-01-30T18:24:57.079Z,5.60
2018-01-30T18:27:24.719Z,5.60
2018-01-30T18:29:52.272Z,5.50
2018-01-30T18:32:19.864Z,5.40
2018-01-30T18:34:47.391Z,5.30
2018-01-30T18:37:15.707Z,5.20
2018-01-30T18:39:43.343Z,5.20
2018-01-30T18:42:11.661Z,5.10
2018-01-30T18:44:39.189Z,5.10
2018-01-30T18:47:08.445Z,5.00
2018-01-30T18:49:35.973Z,5.00
2018-01-30T18:52:03.511Z,5.00
2018-01-30T18:54:31.364Z,4.90
2018-01-30T18:56:59.722Z,4.90
2018-01-30T18:59:27.247Z,4.90
2018-01-30T19:01:54.898Z,4.90
2018-01-30T19:04:22.507Z,5.10
2018-01-30T19:06:50.052Z,5.20
2018-01-30T19:09:17.662Z,5.20
2018-01-30T19:11:45.287Z,5.20
2018-01-30T19:14:12.926Z,5.20
2018-01-30T19:16:41.278Z,5.00
2018-01-30T19:19:08.888Z,5.10
2018-01-30T19:21:36.703Z,5.00
2018-01-30T19:24:04.311Z,5.00
2018-01-30T19:26:31.970Z,5.00
2018-01-30T19:28:59.616Z,5.00
2018-01-30T19:31:27.335Z,5.00
2018-01-30T19:33:54.915Z,4.90
2018-01-30T19:36:22.829Z,4.90
2018-01-30T19:38:50.536Z,4.90
2018-01-30T19:41:18.075Z,4.90
2018-01-30T19:43:45.621Z,4.90
2018-01-30T19:46:14.103Z,4.80
2018-01-30T19:48:41.764Z,4.80
2018-01-30T19:51:09.367Z,4.80
2018-01-30T19:53:37.784Z,4.80
2018-01-30T19:56:05.843Z,4.80
2018-01-30T19:58:34.142Z,4.70
2018-01-30T20:01:01.747Z,4.70
2018-01-30T20:03:29.573Z,4.60
2018-01-30T20:08:29.687Z,4.50
2018-01-30T20:10:57.237Z,4.50
2018-01-30T20:13:24.976Z,4.50
2018-01-30T20:15:53.399Z,4.50
2018-01-30T20:18:20.976Z,4.40
2018-01-30T20:20:48.527Z,4.50
2018-01-30T20:23:16.320Z,4.50
2018-01-30T20:25:43.867Z,4.50
2018-01-30T20:28:12.214Z,4.40
2018-01-30T20:30:40.448Z,4.40
2018-01-30T20:33:08.807Z,4.30
2018-01-30T20:35:37.144Z,4.30
2018-01-30T20:38:05.189Z,4.30
2018-01-30T20:40:32.771Z,4.30
2018-01-30T20:43:01.083Z,4.20
2018-01-30T20:45:28.662Z,4.20
2018-01-30T20:47:56.206Z,4.20
2018-01-30T20:50:24.521Z,4.20
2018-01-30T20:52:52.095Z,4.20
2018-01-30T20:55:20.779Z,4.20
2018-01-30T20:57:48.334Z,4.10
2018-01-30T21:00:16.240Z,4.10
2018-01-30T21:02:43.932Z,4.10
2018-01-30T21:05:11.685Z,4.10
2018-01-30T21:07:39.267Z,4.00
2018-01-30T21:10:06.858Z,4.00
2018-01-30T21:12:34.397Z,4.00
2018-01-30T21:15:02.145Z,4.00
2018-01-30T21:17:29.666Z,4.00
2018-01-30T21:19:57.239Z,4.00
2018-01-30T21:22:24.871Z,4.00
2018-01-30T21:24:53.244Z,4.00
2018-01-30T21:27:20.853Z,4.00
2018-01-30T21:29:48.447Z,4.10
2018-01-30T21:32:16.022Z,4.10
2018-01-30T21:34:43.583Z,4.10
2018-01-30T21:37:11.262Z,4.10
2018-01-30T21:39:38.810Z,4.10
2018-01-30T21:42:06.381Z,4.00
2018-01-30T21:44:34.075Z,4.00
2018-01-30T21:47:01.602Z,4.00
2018-01-30T21:49:30.338Z,3.90
2018-01-30T21:51:58.026Z,3.90
2018-01-30T21:54:25.562Z,3.90
2018-01-30T21:56:53.118Z,3.90
2018-01-30T21:59:21.467Z,3.90
2018-01-30T22:01:49.122Z,3.80
2018-01-30T22:04:16.681Z,3.90
2018-01-30T22:06:44.361Z,3.90
2018-01-30T22:09:11.920Z,3.80
2018-01-30T22:11:39.459Z,3.70
2018-01-30T22:14:07.068Z,3.70
2018-01-30T22:16:34.604Z,3.70
2018-01-30T22:19:02.327Z,3.70
2018-01-30T22:21:30.103Z,3.60
2018-01-30T22:23:57.648Z,3.60
2018-01-30T22:26:25.242Z,3.70
2018-01-30T22:28:52.815Z,3.60
2018-01-30T22:31:20.345Z,3.60
2018-01-30T22:33:48.651Z,3.50
2018-01-30T22:36:16.226Z,3.50
2018-01-30T22:38:43.762Z,3.50
2018-01-30T22:41:11.391Z,3.50
2018-01-30T22:43:38.960Z,3.50
2018-01-30T22:46:06.526Z,3.50
